createdAt,value
2022-11-21T00:00:31.009Z,15.63
2022-11-21T00:01:20.055Z,15.50
2022-11-21T00:01:52.194Z,14.70
2022-11-21T00:02:24.286Z,15.30
2022-11-21T00:03:01.486Z,15.13
2022-11-21T00:03:33.571Z,15.15
2022-11-21T00:04:05.643Z,15.05
2022-11-21T00:04:40.294Z,16.40
2022-11-21T00:05:12.459Z,15.63
2022-11-21T00:05:46.363Z,15.13
2022-11-21T00:06:21.938Z,15.18
2022-11-21T00:06:54.029Z,15.80
2022-11-21T00:07:26.105Z,15.60
2022-11-21T00:08:01.515Z,15.88
2022-11-21T00:08:33.586Z,16.02
2022-11-21T00:09:08.227Z,15.25
2022-11-21T00:09:40.310Z,15.20
2022-11-21T00:10:12.669Z,15.32
2022-11-21T00:10:45.286Z,15.50
2022-11-21T00:11:20.205Z,15.57
2022-11-21T00:11:52.423Z,15.60
2022-11-21T00:12:25.274Z,15.35
2022-11-21T00:13:00.634Z,16.52
2022-11-21T00:13:32.732Z,16.00
2022-11-21T00:14:04.937Z,13.60
2022-11-21T00:14:39.599Z,15.68
2022-11-21T00:15:11.730Z,15.65
2022-11-21T00:15:44.165Z,14.63
2022-11-21T00:16:21.445Z,15.57
2022-11-21T00:16:57.337Z,15.30
2022-11-21T00:17:29.687Z,16.08
2022-11-21T00:18:06.387Z,15.35
2022-11-21T00:18:38.560Z,15.68
2022-11-21T00:19:13.250Z,16.02
2022-11-21T00:19:45.385Z,15.82
2022-11-21T00:20:18.466Z,15.50
2022-11-21T00:20:53.217Z,17.15
2022-11-21T00:21:25.304Z,14.88
2022-11-21T00:21:57.450Z,15.50
2022-11-21T00:22:33.500Z,14.52
2022-11-21T00:23:05.871Z,14.52
2022-11-21T00:23:37.982Z,14.45
2022-11-21T00:24:13.285Z,16.33
2022-11-21T00:24:45.327Z,15.57
2022-11-21T00:25:17.410Z,15.85
2022-11-21T00:25:52.100Z,16.58
2022-11-21T00:26:24.329Z,16.20
2022-11-21T00:26:56.437Z,16.23
2022-11-21T00:27:31.133Z,15.63
2022-11-21T00:28:03.273Z,16.90
2022-11-21T00:28:36.360Z,16.13
2022-11-21T00:29:11.139Z,16.35
2022-11-21T00:29:43.208Z,15.02
2022-11-21T00:30:15.547Z,15.93
2022-11-21T00:30:47.618Z,16.27
2022-11-21T00:31:26.771Z,16.13
2022-11-21T00:31:58.860Z,15.40
2022-11-21T00:32:31.585Z,16.65
2022-11-21T00:33:06.438Z,15.60
2022-11-21T00:33:39.273Z,16.10
2022-11-21T00:34:11.490Z,15.88
2022-11-21T00:34:43.538Z,16.02
2022-11-21T00:35:18.338Z,16.23
2022-11-21T00:35:50.390Z,17.67
2022-11-21T00:36:22.533Z,17.02
2022-11-21T00:36:57.171Z,18.08
2022-11-21T00:37:29.290Z,18.38
2022-11-21T00:38:01.353Z,19.30
2022-11-21T00:38:36.034Z,21.98
2022-11-21T00:39:08.387Z,23.17
2022-11-21T00:39:40.486Z,21.42
2022-11-21T00:40:15.518Z,22.50
2022-11-21T00:40:47.616Z,19.85
2022-11-21T00:41:19.736Z,21.45
2022-11-21T00:41:54.426Z,18.23
2022-11-21T00:42:27.218Z,17.85
2022-11-21T00:42:59.334Z,17.30
2022-11-21T00:43:34.021Z,16.35
2022-11-21T00:44:06.105Z,16.88
2022-11-21T00:44:40.793Z,17.60
2022-11-21T00:45:12.860Z,17.70
2022-11-21T00:45:44.963Z,17.13
2022-11-21T00:46:19.642Z,17.73
2022-11-21T00:46:54.309Z,18.40
2022-11-21T00:47:26.393Z,21.05
2022-11-21T00:47:58.510Z,29.27
2022-11-21T00:48:33.852Z,36.28
2022-11-21T00:49:05.916Z,36.17
2022-11-21T00:49:37.981Z,34.83
2022-11-21T00:50:13.125Z,30.63
2022-11-21T00:50:48.036Z,30.30
2022-11-21T00:51:20.094Z,28.67
2022-11-21T00:51:54.777Z,24.42
2022-11-21T00:52:26.884Z,23.73
2022-11-21T00:52:59.450Z,24.33
2022-11-21T00:53:34.226Z,23.42
2022-11-21T00:54:06.378Z,24.45
2022-11-21T00:54:38.469Z,23.40
2022-11-21T00:55:13.286Z,22.17
2022-11-21T00:55:45.394Z,21.90
2022-11-21T00:56:17.465Z,22.77
2022-11-21T00:56:52.138Z,21.60
2022-11-21T00:57:24.219Z,19.70
2022-11-21T00:57:56.460Z,20.20
2022-11-21T00:58:31.282Z,18.75
2022-11-21T00:59:03.521Z,19.08
2022-11-21T00:59:35.614Z,19.95
2022-11-21T01:00:12.045Z,18.92
2022-11-21T01:00:44.191Z,20.80
2022-11-21T01:01:16.623Z,19.60
2022-11-21T01:01:51.487Z,20.02
2022-11-21T01:02:26.177Z,19.77
2022-11-21T01:02:58.278Z,21.75
2022-11-21T01:03:34.384Z,20.23
2022-11-21T01:04:06.449Z,22.02
2022-11-21T01:04:38.518Z,23.42
2022-11-21T01:05:13.309Z,22.23
2022-11-21T01:05:45.417Z,21.42
2022-11-21T01:06:17.494Z,23.17
2022-11-21T01:06:52.237Z,23.08
2022-11-21T01:07:24.375Z,30.15
2022-11-21T01:07:56.442Z,26.70
2022-11-21T01:08:28.600Z,22.40
2022-11-21T01:09:03.304Z,22.67
2022-11-21T01:09:35.422Z,24.00
2022-11-21T01:10:08.384Z,24.40
2022-11-21T01:10:43.066Z,24.63
2022-11-21T01:11:17.991Z,22.63
2022-11-21T01:11:50.203Z,23.63
2022-11-21T01:12:25.014Z,23.90
2022-11-21T01:12:57.094Z,21.05
2022-11-21T01:13:29.176Z,23.55
2022-11-21T01:14:03.839Z,20.70
2022-11-21T01:14:36.164Z,20.95
2022-11-21T01:15:09.663Z,21.30
2022-11-21T01:15:44.344Z,21.35
2022-11-21T01:16:19.944Z,20.95
2022-11-21T01:16:52.221Z,20.00
2022-11-21T01:17:29.484Z,19.27
2022-11-21T01:18:01.692Z,19.48
2022-11-21T01:18:33.829Z,18.38
2022-11-21T01:19:05.941Z,18.05
2022-11-21T01:19:40.702Z,19.60
2022-11-21T01:20:12.778Z,18.70
2022-11-21T01:20:44.890Z,18.45
2022-11-21T01:21:21.653Z,18.80
2022-11-21T01:21:53.771Z,20.58
2022-11-21T01:22:25.889Z,18.80
2022-11-21T01:23:00.572Z,19.45
2022-11-21T01:23:33.061Z,18.50
2022-11-21T01:24:05.608Z,20.30
2022-11-21T01:24:40.333Z,20.50
2022-11-21T01:25:12.416Z,18.50
2022-11-21T01:25:44.482Z,19.40
2022-11-21T01:26:21.860Z,18.88
2022-11-21T01:26:54.401Z,20.48
2022-11-21T01:27:26.481Z,19.67
2022-11-21T01:28:01.147Z,18.10
2022-11-21T01:28:33.798Z,18.85
2022-11-21T01:29:07.275Z,20.23
2022-11-21T01:29:41.989Z,17.33
2022-11-21T01:30:15.098Z,18.45
2022-11-21T01:30:47.169Z,17.65
2022-11-21T01:31:24.042Z,18.95
2022-11-21T01:31:56.269Z,17.63
2022-11-21T01:32:33.514Z,18.33
2022-11-21T01:33:05.588Z,17.38
2022-11-21T01:33:38.390Z,17.35
2022-11-21T01:34:14.948Z,17.83
2022-11-21T01:34:47.078Z,18.10
2022-11-21T01:35:19.542Z,17.50
2022-11-21T01:35:54.193Z,18.15
2022-11-21T01:36:27.996Z,18.73
2022-11-21T01:37:01.369Z,17.35
2022-11-21T01:37:36.077Z,18.13
2022-11-21T01:38:08.146Z,18.25
2022-11-21T01:38:41.219Z,18.05
2022-11-21T01:39:13.354Z,18.40
2022-11-21T01:39:48.063Z,16.92
2022-11-21T01:40:20.152Z,16.75
2022-11-21T01:40:52.227Z,17.60
2022-11-21T01:41:31.372Z,17.73
2022-11-21T01:42:03.851Z,17.23
2022-11-21T01:42:52.759Z,16.80
2022-11-21T01:43:24.879Z,18.02
2022-11-21T01:43:57.297Z,20.10
2022-11-21T01:44:51.693Z,17.55
2022-11-21T01:45:56.304Z,17.15
2022-11-21T01:46:31.664Z,17.23
2022-11-21T01:47:03.835Z,17.55
2022-11-21T01:47:38.497Z,18.13
2022-11-21T01:48:10.653Z,17.13
2022-11-21T01:48:50.808Z,18.23
2022-11-21T01:49:26.573Z,17.55
2022-11-21T01:50:01.395Z,18.83
2022-11-21T01:50:33.608Z,17.20
2022-11-21T01:51:10.025Z,16.60
2022-11-21T01:51:50.438Z,18.10
2022-11-21T01:52:56.951Z,16.35
2022-11-21T01:53:29.486Z,16.80
2022-11-21T01:54:09.365Z,17.67
2022-11-21T01:54:44.372Z,17.58
2022-11-21T01:55:19.147Z,17.38
2022-11-21T01:55:51.993Z,18.75
2022-11-21T01:56:27.523Z,17.10
2022-11-21T01:57:04.588Z,17.63
2022-11-21T01:57:43.985Z,17.83
2022-11-21T01:58:16.988Z,16.75
2022-11-21T01:58:51.976Z,16.40
2022-11-21T01:59:30.818Z,16.17
2022-11-21T02:00:07.632Z,18.25
2022-11-21T02:00:41.943Z,17.92
2022-11-21T02:01:16.766Z,17.90
2022-11-21T02:01:53.618Z,17.92
2022-11-21T02:02:30.767Z,18.15
2022-11-21T02:03:13.162Z,18.92
2022-11-21T02:03:47.656Z,19.55
2022-11-21T02:04:23.602Z,17.52
2022-11-21T02:04:56.979Z,17.13
2022-11-21T02:05:33.393Z,17.95
2022-11-21T02:06:09.960Z,18.83
2022-11-21T02:06:42.183Z,18.42
2022-11-21T02:07:20.757Z,17.77
2022-11-21T02:07:55.832Z,17.58
2022-11-21T02:08:28.916Z,17.25
2022-11-21T02:09:04.442Z,18.70
2022-11-21T02:09:39.701Z,18.08
2022-11-21T02:10:13.226Z,17.73
2022-11-21T02:10:54.488Z,17.70
2022-11-21T02:11:32.570Z,17.80
2022-11-21T02:12:11.381Z,17.70
2022-11-21T02:12:48.297Z,17.85
2022-11-21T02:13:22.901Z,17.67
2022-11-21T02:13:58.514Z,16.55
2022-11-21T02:14:31.817Z,17.80
2022-11-21T02:15:04.855Z,17.20
2022-11-21T02:15:39.629Z,17.90
2022-11-21T02:16:12.242Z,17.45
2022-11-21T02:16:44.767Z,18.48
2022-11-21T02:17:21.539Z,16.92
2022-11-21T02:17:53.875Z,18.65
2022-11-21T02:18:28.712Z,18.80
2022-11-21T02:19:00.911Z,18.55
2022-11-21T02:19:41.681Z,18.58
2022-11-21T02:20:15.952Z,18.58
2022-11-21T02:20:58.425Z,19.05
2022-11-21T02:21:44.177Z,18.65
2022-11-21T02:22:24.767Z,17.55
2022-11-21T02:23:06.563Z,19.05
2022-11-21T02:23:47.930Z,18.98
2022-11-21T02:24:26.973Z,17.23
2022-11-21T02:25:05.484Z,19.65
2022-11-21T02:25:42.353Z,18.27
2022-11-21T02:26:14.581Z,18.50
2022-11-21T02:26:51.114Z,19.58
2022-11-21T02:27:23.248Z,18.75
2022-11-21T02:27:59.919Z,18.95
2022-11-21T02:28:32.101Z,18.48
2022-11-21T02:29:07.138Z,18.58
2022-11-21T02:29:40.083Z,17.88
2022-11-21T02:30:13.087Z,16.83
2022-11-21T02:30:47.954Z,17.77
2022-11-21T02:31:20.025Z,18.80
2022-11-21T02:31:52.921Z,18.77
2022-11-21T02:32:34.484Z,18.38
2022-11-21T02:33:06.712Z,18.67
2022-11-21T02:33:39.006Z,18.13
2022-11-21T02:34:13.688Z,17.85
2022-11-21T02:34:45.760Z,18.02
2022-11-21T02:35:19.404Z,18.30
2022-11-21T02:36:01.465Z,18.27
2022-11-21T02:36:40.375Z,18.33
2022-11-21T02:37:12.707Z,18.13
2022-11-21T02:37:49.892Z,18.92
2022-11-21T02:38:26.897Z,19.42
2022-11-21T02:38:59.606Z,19.58
2022-11-21T02:39:38.546Z,19.20
2022-11-21T02:40:16.406Z,20.00
2022-11-21T02:40:53.907Z,18.50
2022-11-21T02:41:30.654Z,18.00
2022-11-21T02:42:08.155Z,18.42
2022-11-21T02:42:52.630Z,18.23
2022-11-21T02:43:28.691Z,17.40
2022-11-21T02:44:07.056Z,18.80
2022-11-21T02:44:48.714Z,18.88
2022-11-21T02:45:25.621Z,18.50
2022-11-21T02:45:59.204Z,17.90
2022-11-21T02:46:33.913Z,18.52
2022-11-21T02:47:06.089Z,17.90
2022-11-21T02:47:40.476Z,18.83
2022-11-21T02:48:16.004Z,18.33
2022-11-21T02:48:48.428Z,16.55
2022-11-21T02:49:32.013Z,19.45
2022-11-21T02:50:15.760Z,17.50
2022-11-21T02:50:48.457Z,16.73
2022-11-21T02:51:20.499Z,18.50
2022-11-21T02:51:52.604Z,20.05
2022-11-21T02:52:27.253Z,17.77
2022-11-21T02:52:59.496Z,18.40
2022-11-21T02:53:31.615Z,19.98
2022-11-21T02:54:06.661Z,21.40
2022-11-21T02:54:38.711Z,20.88
2022-11-21T02:55:15.393Z,19.52
2022-11-21T02:55:50.196Z,19.42
2022-11-21T02:56:22.284Z,18.67
2022-11-21T02:56:54.610Z,17.25
2022-11-21T02:57:29.290Z,20.55
2022-11-21T02:58:05.174Z,16.90
2022-11-21T02:58:37.639Z,17.50
2022-11-21T02:59:12.319Z,18.35
2022-11-21T02:59:44.406Z,19.25
2022-11-21T03:00:17.962Z,20.08
2022-11-21T03:00:53.076Z,18.85
2022-11-21T03:01:25.234Z,18.10
2022-11-21T03:01:59.811Z,22.38
2022-11-21T03:02:34.514Z,21.05
2022-11-21T03:03:06.790Z,20.98
2022-11-21T03:03:39.034Z,19.38
2022-11-21T03:04:13.767Z,19.83
2022-11-21T03:04:46.119Z,19.65
2022-11-21T03:05:19.680Z,19.38
2022-11-21T03:05:54.793Z,20.08
2022-11-21T03:06:26.893Z,20.88
2022-11-21T03:06:59.081Z,19.67
2022-11-21T03:07:34.000Z,19.67
2022-11-21T03:08:06.637Z,23.00
2022-11-21T03:08:38.708Z,27.00
2022-11-21T03:09:13.355Z,24.27
2022-11-21T03:09:45.429Z,25.63
2022-11-21T03:10:20.721Z,22.30
2022-11-21T03:10:55.485Z,23.45
2022-11-21T03:11:27.626Z,23.83
2022-11-21T03:11:59.755Z,22.52
2022-11-21T03:12:34.473Z,21.98
2022-11-21T03:13:06.721Z,21.52
2022-11-21T03:13:38.816Z,21.58
2022-11-21T03:14:11.225Z,20.52
2022-11-21T03:14:45.904Z,20.67
2022-11-21T03:15:18.116Z,24.13
2022-11-21T03:15:50.214Z,22.00
2022-11-21T03:16:24.992Z,20.77
2022-11-21T03:16:57.159Z,19.58
2022-11-21T03:17:29.231Z,20.58
2022-11-21T03:18:05.406Z,19.92
2022-11-21T03:18:37.483Z,20.02
2022-11-21T03:19:09.675Z,20.13
2022-11-21T03:19:41.823Z,20.77
2022-11-21T03:20:16.488Z,20.50
2022-11-21T03:20:48.582Z,20.17
2022-11-21T03:21:20.677Z,21.52
2022-11-21T03:21:55.421Z,21.38
2022-11-21T03:22:28.030Z,21.08
2022-11-21T03:23:00.164Z,20.23
2022-11-21T03:23:32.266Z,20.20
2022-11-21T03:24:07.893Z,19.35
2022-11-21T03:24:40.029Z,21.15
2022-11-21T03:25:12.134Z,18.60
2022-11-21T03:25:49.380Z,20.17
2022-11-21T03:26:21.454Z,19.70
2022-11-21T03:26:53.541Z,20.27
2022-11-21T03:27:28.403Z,20.38
2022-11-21T03:28:00.538Z,19.88
2022-11-21T03:28:32.635Z,19.95
2022-11-21T03:29:07.470Z,23.17
2022-11-21T03:29:39.613Z,21.92
2022-11-21T03:30:13.130Z,20.77
2022-11-21T03:30:47.832Z,23.48
2022-11-21T03:31:19.927Z,21.60
2022-11-21T03:31:51.982Z,22.40
2022-11-21T03:32:24.055Z,19.58
2022-11-21T03:32:59.411Z,21.00
2022-11-21T03:33:31.538Z,21.40
2022-11-21T03:34:03.901Z,20.02
2022-11-21T03:34:38.885Z,19.10
2022-11-21T03:35:10.970Z,20.50
2022-11-21T03:35:43.084Z,20.33
2022-11-21T03:36:17.757Z,19.45
2022-11-21T03:36:49.842Z,20.27
2022-11-21T03:37:21.918Z,22.67
2022-11-21T03:37:56.604Z,20.83
2022-11-21T03:38:28.678Z,21.00
2022-11-21T03:39:00.824Z,20.00
2022-11-21T03:39:35.509Z,19.98
2022-11-21T03:40:09.145Z,20.63
2022-11-21T03:40:43.825Z,20.45
2022-11-21T03:41:30.435Z,20.08
2022-11-21T03:42:02.542Z,19.45
2022-11-21T03:42:37.214Z,21.63
2022-11-21T03:43:09.375Z,19.55
2022-11-21T03:43:41.530Z,20.55
2022-11-21T03:44:16.255Z,19.63
2022-11-21T03:44:48.346Z,20.80
2022-11-21T03:45:20.436Z,22.25
2022-11-21T03:45:55.123Z,20.58
2022-11-21T03:46:27.733Z,23.10
2022-11-21T03:46:59.807Z,21.88
2022-11-21T03:47:34.774Z,20.55
2022-11-21T03:48:07.174Z,21.27
2022-11-21T03:48:39.530Z,21.75
2022-11-21T03:49:15.940Z,22.23
2022-11-21T03:49:48.093Z,20.70
2022-11-21T03:50:21.686Z,19.33
2022-11-21T03:50:56.793Z,21.80
2022-11-21T03:51:29.061Z,21.77
2022-11-21T03:52:03.720Z,21.00
2022-11-21T03:52:35.794Z,20.70
2022-11-21T03:53:07.892Z,21.65
2022-11-21T03:53:42.599Z,21.92
2022-11-21T03:54:14.689Z,24.52
2022-11-21T03:54:46.819Z,20.90
2022-11-21T03:55:22.152Z,21.73
2022-11-21T03:55:54.217Z,21.95
2022-11-21T03:56:29.189Z,21.33
2022-11-21T03:57:03.859Z,20.77
2022-11-21T03:57:35.933Z,20.98
2022-11-21T03:58:07.994Z,20.88
2022-11-21T03:58:42.659Z,19.95
2022-11-21T03:59:14.805Z,20.23
2022-11-21T03:59:46.983Z,20.65
2022-11-21T04:00:22.265Z,21.27
2022-11-21T04:00:54.370Z,21.77
2022-11-21T04:01:26.552Z,20.38
2022-11-21T04:02:01.349Z,21.20
2022-11-21T04:02:33.793Z,21.00
2022-11-21T04:03:05.873Z,20.00
2022-11-21T04:03:40.644Z,21.02
2022-11-21T04:04:12.771Z,24.77
2022-11-21T04:04:44.848Z,20.63
2022-11-21T04:05:19.608Z,20.85
2022-11-21T04:05:51.725Z,19.08
2022-11-21T04:06:23.878Z,22.17
2022-11-21T04:06:58.576Z,21.75
2022-11-21T04:07:30.720Z,20.25
2022-11-21T04:08:02.829Z,20.30
2022-11-21T04:08:37.835Z,21.88
2022-11-21T04:09:09.985Z,21.05
2022-11-21T04:09:42.053Z,21.77
2022-11-21T04:10:14.412Z,20.90
2022-11-21T04:10:50.265Z,21.73
2022-11-21T04:11:23.648Z,22.58
2022-11-21T04:11:58.311Z,21.90
2022-11-21T04:12:32.986Z,21.85
2022-11-21T04:13:05.151Z,21.85
2022-11-21T04:13:37.534Z,20.95
2022-11-21T04:14:16.226Z,21.75
2022-11-21T04:14:48.372Z,22.95
2022-11-21T04:15:20.447Z,21.00
2022-11-21T04:15:55.213Z,21.67
2022-11-21T04:16:27.333Z,20.70
2022-11-21T04:16:59.446Z,23.30
2022-11-21T04:17:34.492Z,24.27
2022-11-21T04:18:06.564Z,24.60
2022-11-21T04:18:38.679Z,24.08
2022-11-21T04:19:13.347Z,23.75
2022-11-21T04:19:45.509Z,25.30
2022-11-21T04:20:17.909Z,24.70
2022-11-21T04:20:52.647Z,27.05
2022-11-21T04:21:24.759Z,23.67
2022-11-21T04:21:59.459Z,24.60
2022-11-21T04:22:31.542Z,24.25
2022-11-21T04:23:03.985Z,25.05
2022-11-21T04:23:36.306Z,26.58
2022-11-21T04:24:11.719Z,26.00
2022-11-21T04:24:43.815Z,24.35
2022-11-21T04:25:16.052Z,24.88
2022-11-21T04:25:48.131Z,24.58
2022-11-21T04:26:22.783Z,24.52
2022-11-21T04:26:57.608Z,26.58
2022-11-21T04:27:29.833Z,27.73
2022-11-21T04:28:05.931Z,25.42
2022-11-21T04:28:38.365Z,28.00
2022-11-21T04:29:10.493Z,28.17
2022-11-21T04:29:45.185Z,26.55
2022-11-21T04:30:17.717Z,29.75
2022-11-21T04:30:52.468Z,32.75
2022-11-21T04:31:29.477Z,32.42
2022-11-21T04:32:01.555Z,29.65
2022-11-21T04:32:33.698Z,27.98
2022-11-21T04:33:08.371Z,24.27
2022-11-21T04:33:40.473Z,26.98
2022-11-21T04:34:12.534Z,24.40
2022-11-21T04:34:47.198Z,23.42
2022-11-21T04:35:19.810Z,22.20
2022-11-21T04:35:51.888Z,26.15
2022-11-21T04:36:26.589Z,23.85
2022-11-21T04:36:58.729Z,24.17
2022-11-21T04:37:30.822Z,24.33
2022-11-21T04:38:05.616Z,24.52
2022-11-21T04:38:37.865Z,23.10
2022-11-21T04:39:12.546Z,23.25
2022-11-21T04:39:44.665Z,20.90
2022-11-21T04:40:17.896Z,23.50
2022-11-21T04:40:52.602Z,26.05
2022-11-21T04:41:24.717Z,24.50
2022-11-21T04:41:59.418Z,23.90
2022-11-21T04:42:34.072Z,24.30
2022-11-21T04:43:06.353Z,24.00
2022-11-21T04:43:41.018Z,23.90
2022-11-21T04:44:13.094Z,24.33
2022-11-21T04:44:45.303Z,23.73
2022-11-21T04:45:18.084Z,24.55
2022-11-21T04:45:52.775Z,24.63
2022-11-21T04:46:24.897Z,25.20
2022-11-21T04:46:59.976Z,25.33
2022-11-21T04:47:39.848Z,26.77
2022-11-21T04:48:12.134Z,27.15
2022-11-21T04:48:44.189Z,25.83
2022-11-21T04:49:18.849Z,30.15
2022-11-21T04:49:51.022Z,29.75
2022-11-21T04:50:23.189Z,30.52
2022-11-21T04:50:57.878Z,28.42
2022-11-21T04:51:29.942Z,26.20
2022-11-21T04:52:04.628Z,25.55
2022-11-21T04:52:36.742Z,24.50
2022-11-21T04:53:08.856Z,24.50
2022-11-21T04:53:43.544Z,25.17
2022-11-21T04:54:15.624Z,25.65
2022-11-21T04:54:48.317Z,24.85
2022-11-21T04:55:23.830Z,23.52
2022-11-21T04:55:55.932Z,23.75
2022-11-21T04:56:28.017Z,22.10
2022-11-21T04:57:05.293Z,23.67
2022-11-21T04:57:37.342Z,21.10
2022-11-21T04:58:09.514Z,23.65
2022-11-21T04:58:44.772Z,23.73
2022-11-21T04:59:16.951Z,22.05
2022-11-21T04:59:49.024Z,22.52
2022-11-21T05:00:24.680Z,23.38
2022-11-21T05:00:57.077Z,22.98
2022-11-21T05:01:31.818Z,23.25
2022-11-21T05:02:04.265Z,22.10
2022-11-21T05:02:36.348Z,22.25
2022-11-21T05:03:11.242Z,23.08
2022-11-21T05:03:43.328Z,22.10
2022-11-21T05:04:15.473Z,22.00
2022-11-21T05:04:50.213Z,22.50
2022-11-21T05:05:22.311Z,21.00
2022-11-21T05:05:54.363Z,21.17
2022-11-21T05:06:29.005Z,21.77
2022-11-21T05:07:01.133Z,23.38
2022-11-21T05:07:33.360Z,22.85
2022-11-21T05:08:08.333Z,22.17
2022-11-21T05:08:40.407Z,22.42
2022-11-21T05:09:12.460Z,23.58
2022-11-21T05:09:44.779Z,22.70
2022-11-21T05:10:19.607Z,21.77
2022-11-21T05:11:06.717Z,22.50
2022-11-21T05:11:53.944Z,21.73
2022-11-21T05:12:43.699Z,22.00
2022-11-21T05:13:21.473Z,22.67
2022-11-21T05:13:53.729Z,23.15
2022-11-21T05:14:27.343Z,23.30
2022-11-21T05:15:02.162Z,21.92
2022-11-21T05:15:34.288Z,25.30
2022-11-21T05:16:06.485Z,24.20
2022-11-21T05:16:41.150Z,23.67
2022-11-21T05:17:13.229Z,24.08
2022-11-21T05:17:45.435Z,25.35
2022-11-21T05:18:21.671Z,25.08
2022-11-21T05:18:53.785Z,23.15
2022-11-21T05:19:25.870Z,24.77
2022-11-21T05:20:00.534Z,26.58
2022-11-21T05:20:36.667Z,25.77
2022-11-21T05:21:09.189Z,25.20
2022-11-21T05:21:43.862Z,26.23
2022-11-21T05:22:15.986Z,26.92
2022-11-21T05:22:52.198Z,28.25
2022-11-21T05:23:26.906Z,29.08
2022-11-21T05:23:59.136Z,26.48
2022-11-21T05:24:31.228Z,27.58
2022-11-21T05:25:06.137Z,29.92
2022-11-21T05:25:38.255Z,28.33
2022-11-21T05:26:12.987Z,25.95
2022-11-21T05:26:45.098Z,27.30
2022-11-21T05:27:17.175Z,28.77
2022-11-21T05:27:54.443Z,26.48
2022-11-21T05:28:26.628Z,27.63
2022-11-21T05:28:58.901Z,26.67
2022-11-21T05:29:33.651Z,29.02
2022-11-21T05:30:06.868Z,29.50
2022-11-21T05:30:38.985Z,27.42
2022-11-21T05:31:13.693Z,30.25
2022-11-21T05:31:45.958Z,32.47
2022-11-21T05:32:18.077Z,33.35
2022-11-21T05:32:52.754Z,35.42
2022-11-21T05:33:24.904Z,37.55
2022-11-21T05:33:57.064Z,34.63
2022-11-21T05:34:31.862Z,36.03
2022-11-21T05:35:04.159Z,32.88
2022-11-21T05:35:42.975Z,31.73
2022-11-21T05:36:18.278Z,32.22
2022-11-21T05:36:50.545Z,32.05
2022-11-21T05:37:22.717Z,33.08
2022-11-21T05:38:00.984Z,35.53
2022-11-21T05:38:33.057Z,35.95
2022-11-21T05:39:05.458Z,33.53
2022-11-21T05:39:40.153Z,33.78
2022-11-21T05:40:12.979Z,42.70
2022-11-21T05:40:45.120Z,35.08
2022-11-21T05:41:19.841Z,32.80
2022-11-21T05:41:52.482Z,35.97
2022-11-21T05:42:39.435Z,32.20
2022-11-21T05:43:29.445Z,32.22
2022-11-21T05:44:01.622Z,34.10
2022-11-21T05:44:33.704Z,33.22
2022-11-21T05:45:09.539Z,35.28
2022-11-21T05:45:41.652Z,32.80
2022-11-21T05:46:17.407Z,32.40
2022-11-21T05:46:52.148Z,34.72
2022-11-21T05:47:24.255Z,32.53
2022-11-21T05:47:56.367Z,34.88
2022-11-21T05:48:31.065Z,32.08
2022-11-21T05:49:03.168Z,34.45
2022-11-21T05:49:35.278Z,35.15
2022-11-21T05:50:10.907Z,33.40
2022-11-21T05:50:43.014Z,40.75
2022-11-21T05:51:15.565Z,33.88
2022-11-21T05:51:50.238Z,34.33
2022-11-21T05:52:22.310Z,32.28
2022-11-21T05:52:54.432Z,30.48
2022-11-21T05:53:29.181Z,34.90
2022-11-21T05:54:01.316Z,35.38
2022-11-21T05:54:35.999Z,33.03
2022-11-21T05:55:08.972Z,32.50
2022-11-21T05:55:41.053Z,34.42
2022-11-21T05:56:17.712Z,33.85
2022-11-21T05:56:49.806Z,33.83
2022-11-21T05:57:21.889Z,32.40
2022-11-21T05:57:56.542Z,33.67
2022-11-21T05:58:32.170Z,31.83
2022-11-21T05:59:06.818Z,30.58
2022-11-21T05:59:38.922Z,33.30
2022-11-21T06:00:12.074Z,32.47
2022-11-21T06:00:46.761Z,31.20
2022-11-21T06:01:39.280Z,29.40
2022-11-21T06:02:26.412Z,26.88
2022-11-21T06:03:13.584Z,29.17
2022-11-21T06:03:46.108Z,25.83
2022-11-21T06:04:19.200Z,24.52
2022-11-21T06:04:53.910Z,27.08
2022-11-21T06:05:25.971Z,26.17
2022-11-21T06:06:08.502Z,27.63
2022-11-21T06:06:41.749Z,25.08
2022-11-21T06:07:13.861Z,27.67
2022-11-21T06:07:48.568Z,30.83
2022-11-21T06:08:20.670Z,26.77
2022-11-21T06:08:55.362Z,24.92
2022-11-21T06:09:27.508Z,29.05
2022-11-21T06:09:59.682Z,27.15
2022-11-21T06:10:31.850Z,28.25
2022-11-21T06:11:07.580Z,29.65
2022-11-21T06:11:39.722Z,27.60
2022-11-21T06:12:11.874Z,28.27
2022-11-21T06:12:43.975Z,25.42
2022-11-21T06:13:27.704Z,27.27
2022-11-21T06:14:02.377Z,27.88
2022-11-21T06:14:37.197Z,28.70
2022-11-21T06:15:10.328Z,27.67
2022-11-21T06:15:44.961Z,25.58
2022-11-21T06:16:18.506Z,27.92
2022-11-21T06:16:53.460Z,27.95
2022-11-21T06:17:25.515Z,28.23
2022-11-21T06:18:00.756Z,29.90
2022-11-21T06:18:37.423Z,29.30
2022-11-21T06:19:09.481Z,29.17
2022-11-21T06:19:41.645Z,27.80
2022-11-21T06:20:16.506Z,28.88
2022-11-21T06:20:48.665Z,29.90
2022-11-21T06:21:24.872Z,30.60
2022-11-21T06:21:57.000Z,30.77
2022-11-21T06:22:29.085Z,29.27
2022-11-21T06:23:03.753Z,27.38
2022-11-21T06:23:36.598Z,27.63
2022-11-21T06:24:09.338Z,27.02
2022-11-21T06:24:44.111Z,24.58
2022-11-21T06:25:16.506Z,26.35
2022-11-21T06:25:48.581Z,28.27
2022-11-21T06:26:25.919Z,29.23
2022-11-21T06:26:58.726Z,30.02
2022-11-21T06:27:30.783Z,29.17
2022-11-21T06:28:05.573Z,27.30
2022-11-21T06:28:40.729Z,28.75
2022-11-21T06:29:18.231Z,33.03
2022-11-21T06:29:50.381Z,32.03
2022-11-21T06:30:22.573Z,30.75
2022-11-21T06:30:57.983Z,32.38
2022-11-21T06:31:31.924Z,28.80
2022-11-21T06:32:04.202Z,25.65
2022-11-21T06:32:40.305Z,28.23
2022-11-21T06:33:12.441Z,23.92
2022-11-21T06:33:45.501Z,25.17
2022-11-21T06:34:20.307Z,28.52
2022-11-21T06:34:52.501Z,27.02
2022-11-21T06:35:24.639Z,25.52
2022-11-21T06:35:59.291Z,25.52
2022-11-21T06:36:31.373Z,25.90
2022-11-21T06:37:03.520Z,24.33
2022-11-21T06:37:38.367Z,23.45
2022-11-21T06:38:12.873Z,25.65
2022-11-21T06:38:45.866Z,26.02
2022-11-21T06:39:20.531Z,25.88
2022-11-21T06:39:52.739Z,24.23
2022-11-21T06:40:25.062Z,27.25
2022-11-21T06:40:59.763Z,30.52
2022-11-21T06:41:32.117Z,27.08
2022-11-21T06:42:07.102Z,29.08
2022-11-21T06:42:39.233Z,24.70
2022-11-21T06:43:11.653Z,27.70
2022-11-21T06:43:46.937Z,27.23
2022-11-21T06:44:21.702Z,28.92
2022-11-21T06:44:53.933Z,24.42
2022-11-21T06:45:28.883Z,30.25
2022-11-21T06:46:03.360Z,28.58
2022-11-21T06:46:38.048Z,29.17
2022-11-21T06:47:10.126Z,30.23
2022-11-21T06:47:42.269Z,31.55
2022-11-21T06:48:16.969Z,30.55
2022-11-21T06:48:49.234Z,32.05
2022-11-21T06:49:22.260Z,34.38
2022-11-21T06:49:57.014Z,33.78
2022-11-21T06:50:31.253Z,32.33
2022-11-21T06:51:09.479Z,29.95
2022-11-21T06:51:41.638Z,32.17
2022-11-21T06:52:13.758Z,33.30
2022-11-21T06:52:48.435Z,31.77
2022-11-21T06:53:20.719Z,32.80
2022-11-21T06:53:55.993Z,30.40
2022-11-21T06:54:30.880Z,30.27
2022-11-21T06:55:03.182Z,35.17
2022-11-21T06:55:35.317Z,33.00
2022-11-21T06:56:10.005Z,30.70
2022-11-21T06:56:42.088Z,32.05
2022-11-21T06:57:17.098Z,32.25
2022-11-21T06:57:49.305Z,29.50
2022-11-21T06:58:21.412Z,31.05
2022-11-21T06:58:56.353Z,30.48
2022-11-21T06:59:31.020Z,29.65
2022-11-21T07:00:05.373Z,31.58
2022-11-21T07:00:40.123Z,29.05
2022-11-21T07:01:12.374Z,28.88
2022-11-21T07:01:44.628Z,25.45
2022-11-21T07:02:19.390Z,24.58
2022-11-21T07:02:51.679Z,24.80
2022-11-21T07:03:24.181Z,29.42
2022-11-21T07:03:58.955Z,25.98
2022-11-21T07:04:31.065Z,30.58
2022-11-21T07:05:03.145Z,29.40
2022-11-21T07:05:38.105Z,28.98
2022-11-21T07:06:10.243Z,27.25
2022-11-21T07:06:44.957Z,29.10
2022-11-21T07:07:17.083Z,33.15
2022-11-21T07:07:49.199Z,39.80
2022-11-21T07:08:23.881Z,40.20
2022-11-21T07:09:25.500Z,40.85
2022-11-21T07:09:51.006Z,39.88
2022-11-21T07:10:23.246Z,37.90
2022-11-21T07:11:23.611Z,39.85
2022-11-21T07:11:50.320Z,39.92
2022-11-21T07:12:37.465Z,34.38
2022-11-21T07:13:28.520Z,32.33
2022-11-21T07:14:03.741Z,34.63
2022-11-21T07:14:40.975Z,33.17
2022-11-21T07:15:13.143Z,35.63
2022-11-21T07:15:48.983Z,33.60
2022-11-21T07:16:21.212Z,32.38
2022-11-21T07:16:53.347Z,30.23
2022-11-21T07:17:28.020Z,30.42
2022-11-21T07:18:00.152Z,31.17
2022-11-21T07:18:32.733Z,32.17
2022-11-21T07:19:07.635Z,32.70
2022-11-21T07:19:41.164Z,34.28
2022-11-21T07:20:13.708Z,32.60
2022-11-21T07:20:48.625Z,33.92